createdAt,value
2019-02-09T00:00:19.596Z,57.09
2019-02-09T00:02:46.261Z,57.13
2019-02-09T00:05:13.208Z,57.01
2019-02-09T00:07:39.905Z,56.86
2019-02-09T00:10:06.756Z,56.57
2019-02-09T00:12:33.845Z,56.00
2019-02-09T00:15:00.795Z,55.29
2019-02-09T00:17:27.428Z,55.30
2019-02-09T00:19:54.126Z,55.12
2019-02-09T00:22:20.893Z,55.61
2019-02-09T00:24:47.872Z,55.92
2019-02-09T00:27:14.673Z,56.58
2019-02-09T00:29:46.488Z,56.90
2019-02-09T00:32:12.347Z,56.58
2019-02-09T00:34:39.081Z,56.63
2019-02-09T00:37:06.027Z,57.38
2019-02-09T00:39:32.985Z,57.50
2019-02-09T00:41:59.611Z,57.52
2019-02-09T00:44:26.500Z,57.30
2019-02-09T00:46:53.176Z,57.13
2019-02-09T00:49:20.421Z,57.11
2019-02-09T00:51:47.172Z,57.21
2019-02-09T00:54:14.088Z,57.20
2019-02-09T00:56:41.974Z,56.82
2019-02-09T00:59:08.610Z,56.63
2019-02-09T01:01:35.458Z,56.50
2019-02-09T01:04:02.051Z,56.30
2019-02-09T01:06:28.732Z,56.74
2019-02-09T01:08:55.370Z,57.05
2019-02-09T01:11:22.100Z,57.12
2019-02-09T01:13:48.918Z,57.12
2019-02-09T01:16:15.560Z,57.23
2019-02-09T01:18:42.420Z,57.46
2019-02-09T01:21:09.085Z,57.42
2019-02-09T01:23:35.708Z,58.27
2019-02-09T01:26:02.378Z,58.22
2019-02-09T01:28:28.992Z,58.19
2019-02-09T01:30:55.565Z,57.81
2019-02-09T01:33:22.328Z,57.44
2019-02-09T01:35:48.979Z,57.19
2019-02-09T01:38:15.943Z,57.62
2019-02-09T01:40:42.591Z,57.97
2019-02-09T01:43:09.307Z,58.19
2019-02-09T01:45:36.225Z,58.48
2019-02-09T01:48:02.846Z,57.78
2019-02-09T01:50:29.549Z,57.40
2019-02-09T01:52:56.185Z,57.22
2019-02-09T01:55:22.802Z,57.02
2019-02-09T01:57:49.565Z,56.88
2019-02-09T02:00:16.208Z,56.65
2019-02-09T02:02:43.588Z,56.52
2019-02-09T02:05:10.579Z,56.65
2019-02-09T02:07:37.233Z,56.78
2019-02-09T02:10:03.907Z,57.26
2019-02-09T02:12:30.542Z,57.24
2019-02-09T02:14:57.484Z,57.14
2019-02-09T02:17:24.183Z,57.39
2019-02-09T02:19:50.836Z,57.87
2019-02-09T02:22:17.533Z,58.22
2019-02-09T02:24:44.443Z,58.49
2019-02-09T02:27:11.233Z,58.87
2019-02-09T02:29:38.240Z,58.93
2019-02-09T02:32:04.856Z,58.67
2019-02-09T02:34:31.493Z,58.44
2019-02-09T02:36:58.403Z,58.83
2019-02-09T02:39:25.073Z,58.51
2019-02-09T02:41:51.773Z,58.63
2019-02-09T02:44:19.511Z,58.57
2019-02-09T02:46:46.193Z,59.00
2019-02-09T02:49:12.934Z,59.22
2019-02-09T02:51:39.844Z,59.83
2019-02-09T02:54:06.783Z,60.23
2019-02-09T02:56:33.728Z,60.56
2019-02-09T02:59:01.284Z,59.92
2019-02-09T03:01:29.598Z,59.87
2019-02-09T03:03:57.074Z,59.81
2019-02-09T03:06:24.456Z,59.99
2019-02-09T03:08:51.135Z,59.82
2019-02-09T03:11:18.685Z,59.59
2019-02-09T03:13:45.589Z,59.55
2019-02-09T03:16:12.372Z,59.81
2019-02-09T03:18:39.224Z,59.78
2019-02-09T03:21:06.339Z,59.60
2019-02-09T03:23:33.300Z,59.47
2019-02-09T03:26:00.112Z,59.34
2019-02-09T03:28:26.770Z,59.08
2019-02-09T03:30:54.384Z,59.41
2019-02-09T03:33:28.644Z,58.98
2019-02-09T03:35:56.007Z,59.13
2019-02-09T03:38:22.947Z,59.09
2019-02-09T03:40:49.682Z,58.71
2019-02-09T03:43:17.351Z,58.32
2019-02-09T03:45:45.436Z,57.91
2019-02-09T03:48:12.081Z,57.64
2019-02-09T03:50:42.592Z,58.19
2019-02-09T03:53:09.429Z,58.29
2019-02-09T03:55:36.965Z,57.85
2019-02-09T03:58:03.687Z,57.52
2019-02-09T04:00:30.293Z,57.60
2019-02-09T04:02:56.935Z,58.03
2019-02-09T04:05:23.804Z,58.52
2019-02-09T04:07:50.765Z,58.59
2019-02-09T04:10:17.457Z,58.41
2019-02-09T04:12:44.085Z,58.43
2019-02-09T04:15:11.408Z,58.40
2019-02-09T04:17:38.120Z,58.92
2019-02-09T04:20:05.018Z,59.32
2019-02-09T04:22:31.947Z,59.93
2019-02-09T04:24:58.688Z,59.41
2019-02-09T04:27:25.393Z,59.57
2019-02-09T04:29:52.157Z,59.49
2019-02-09T04:32:19.083Z,59.21
2019-02-09T04:34:46.535Z,58.68
2019-02-09T04:37:13.286Z,58.40
2019-02-09T04:39:40.027Z,58.74
2019-02-09T04:42:08.642Z,59.21
2019-02-09T04:44:35.284Z,59.68
2019-02-09T04:47:01.916Z,59.54
2019-02-09T04:49:29.378Z,59.31
2019-02-09T04:51:56.550Z,58.73
2019-02-09T04:54:25.827Z,58.43
2019-02-09T04:56:53.592Z,58.60
2019-02-09T04:59:21.485Z,58.81
2019-02-09T05:01:48.122Z,58.91
2019-02-09T05:04:14.738Z,58.50
2019-02-09T05:06:41.522Z,57.95
2019-02-09T05:09:08.190Z,57.70
2019-02-09T05:11:34.867Z,57.77
2019-02-09T05:14:01.727Z,57.98
2019-02-09T05:16:28.397Z,58.11
2019-02-09T05:18:54.988Z,58.65
2019-02-09T05:21:21.794Z,58.99
2019-02-09T05:23:48.711Z,58.77
2019-02-09T05:26:16.555Z,58.45
2019-02-09T05:28:43.239Z,58.34
2019-02-09T05:31:10.037Z,58.46
2019-02-09T05:33:36.962Z,58.43
2019-02-09T05:36:03.672Z,57.95
2019-02-09T05:38:30.282Z,57.72
2019-02-09T05:40:57.119Z,57.92
2019-02-09T05:43:24.032Z,58.91
2019-02-09T05:45:50.743Z,59.57
2019-02-09T05:48:17.646Z,59.47
2019-02-09T05:50:44.447Z,59.57
2019-02-09T05:53:11.354Z,60.16
2019-02-09T05:55:38.243Z,60.61
2019-02-09T05:58:04.934Z,60.70
2019-02-09T06:00:31.657Z,60.56
2019-02-09T06:02:58.586Z,60.39
2019-02-09T06:05:25.499Z,60.47
2019-02-09T06:07:52.165Z,60.43
2019-02-09T06:10:18.792Z,59.98
2019-02-09T06:12:45.808Z,60.61
2019-02-09T06:15:12.689Z,60.58
2019-02-09T06:17:40.647Z,60.62
2019-02-09T06:20:09.068Z,60.32
2019-02-09T06:22:37.115Z,60.35
2019-02-09T06:25:10.030Z,60.07
2019-02-09T06:30:25.255Z,60.11
2019-02-09T06:32:56.085Z,59.86
2019-02-09T06:35:23.973Z,59.75
2019-02-09T06:37:53.381Z,60.06
2019-02-09T06:43:06.977Z,59.48
2019-02-09T06:45:33.884Z,59.34
2019-02-09T06:48:00.551Z,59.16
2019-02-09T06:50:27.171Z,59.13
2019-02-09T06:52:54.096Z,58.81
2019-02-09T06:55:20.973Z,58.42
2019-02-09T06:57:48.405Z,58.35
2019-02-09T07:00:15.635Z,57.56
2019-02-09T07:02:42.243Z,57.54
2019-02-09T07:05:09.111Z,57.51
2019-02-09T07:07:36.085Z,57.76
2019-02-09T07:10:02.686Z,57.64
2019-02-09T07:12:29.275Z,57.63
2019-02-09T07:14:56.189Z,57.55
2019-02-09T07:17:22.813Z,57.22
2019-02-09T07:19:49.478Z,56.83
2019-02-09T07:22:16.478Z,56.85
2019-02-09T07:24:43.324Z,57.59
2019-02-09T07:27:09.931Z,58.34
2019-02-09T07:29:36.586Z,58.17
2019-02-09T07:32:03.426Z,58.20
2019-02-09T07:34:30.022Z,57.91
2019-02-09T07:36:56.728Z,57.87
2019-02-09T07:39:23.488Z,57.76
2019-02-09T07:41:50.106Z,57.51
2019-02-09T07:44:16.725Z,57.87
2019-02-09T07:46:43.576Z,58.07
2019-02-09T07:49:10.485Z,58.33
2019-02-09T07:51:37.754Z,58.54
2019-02-09T07:54:04.769Z,59.02
2019-02-09T07:56:31.620Z,58.94
2019-02-09T07:58:58.253Z,58.44
2019-02-09T08:01:25.084Z,58.00
2019-02-09T08:03:51.852Z,58.29
2019-02-09T08:06:19.266Z,57.91
2019-02-09T08:08:45.942Z,57.93
2019-02-09T08:11:12.853Z,57.61
2019-02-09T08:13:39.565Z,57.04
2019-02-09T08:16:06.526Z,56.81
2019-02-09T08:18:35.029Z,56.21
2019-02-09T08:21:01.702Z,55.99
2019-02-09T08:23:28.389Z,55.74
2019-02-09T08:25:55.157Z,55.71
2019-02-09T08:28:22.086Z,55.38
2019-02-09T08:30:49.549Z,55.64
2019-02-09T08:33:17.201Z,55.31
2019-02-09T08:35:44.759Z,54.27
2019-02-09T08:38:11.516Z,53.00
2019-02-09T08:40:38.295Z,53.23
2019-02-09T08:43:05.414Z,51.83
2019-02-09T08:45:32.318Z,52.54
2019-02-09T08:47:58.920Z,51.93
2019-02-09T08:50:25.556Z,52.02
2019-02-09T08:52:52.420Z,52.05
2019-02-09T08:55:19.854Z,51.77
2019-02-09T08:57:46.623Z,51.49
2019-02-09T09:00:13.618Z,51.73
2019-02-09T09:02:40.675Z,52.07
2019-02-09T09:05:09.854Z,52.48
2019-02-09T09:07:36.696Z,52.56
2019-02-09T09:10:03.660Z,52.23
2019-02-09T09:12:30.464Z,51.98
2019-02-09T09:14:57.231Z,51.72
2019-02-09T09:17:23.968Z,50.57
2019-02-09T09:19:50.828Z,50.11
2019-02-09T09:22:17.524Z,50.27
2019-02-09T09:24:44.414Z,50.38
2019-02-09T09:27:11.129Z,49.49
2019-02-09T09:29:37.766Z,49.77
2019-02-09T09:32:04.715Z,49.98
2019-02-09T09:34:31.709Z,50.36
2019-02-09T09:36:58.925Z,50.75
2019-02-09T09:39:25.873Z,50.46
2019-02-09T09:41:52.708Z,50.18
2019-02-09T09:44:21.121Z,50.29
2019-02-09T09:46:47.809Z,49.14
2019-02-09T09:49:14.827Z,49.96
2019-02-09T09:51:41.750Z,49.59
2019-02-09T09:54:08.384Z,49.60
2019-02-09T09:56:35.025Z,49.55
2019-02-09T09:59:01.883Z,49.44
2019-02-09T10:01:28.803Z,49.31
2019-02-09T10:03:55.533Z,48.88
2019-02-09T10:06:22.173Z,48.40
2019-02-09T10:08:48.944Z,48.26
2019-02-09T10:11:15.736Z,48.13
2019-02-09T10:13:42.367Z,48.90
2019-02-09T10:16:09.193Z,48.32
2019-02-09T10:18:36.149Z,47.48
2019-02-09T10:21:03.940Z,47.47
2019-02-09T10:23:31.561Z,46.79
2019-02-09T10:25:58.658Z,47.65
2019-02-09T10:28:25.361Z,47.08
2019-02-09T10:30:52.415Z,47.13
2019-02-09T10:33:19.520Z,46.88
2019-02-09T10:35:46.434Z,47.25
2019-02-09T10:38:13.437Z,46.98
2019-02-09T10:40:40.159Z,46.83
2019-02-09T10:43:07.097Z,47.01
2019-02-09T10:45:33.882Z,46.56
2019-02-09T10:48:00.794Z,45.37
2019-02-09T10:50:27.728Z,45.27
2019-02-09T10:52:54.741Z,44.13
2019-02-09T10:55:22.148Z,44.54
2019-02-09T10:57:48.827Z,43.91
2019-02-09T11:00:16.173Z,44.48
2019-02-09T11:02:42.908Z,43.74
2019-02-09T11:05:09.746Z,43.53
2019-02-09T11:07:36.427Z,43.90
2019-02-09T11:10:03.357Z,43.35
2019-02-09T11:12:30.070Z,43.26
2019-02-09T11:14:57.019Z,43.50
2019-02-09T11:17:23.960Z,43.16
2019-02-09T11:19:52.283Z,42.48
2019-02-09T11:22:19.204Z,42.66
2019-02-09T11:24:46.407Z,41.50
2019-02-09T11:27:13.453Z,41.17
2019-02-09T11:29:40.236Z,42.50
2019-02-09T11:32:07.099Z,41.99
2019-02-09T11:34:33.748Z,41.21
2019-02-09T11:37:00.645Z,41.69
2019-02-09T11:39:27.627Z,41.29
2019-02-09T11:41:54.266Z,41.35
2019-02-09T11:44:20.879Z,40.68
2019-02-09T11:46:47.760Z,40.02
2019-02-09T11:49:15.002Z,40.56
2019-02-09T11:51:42.201Z,40.06
2019-02-09T11:54:08.947Z,40.17
2019-02-09T11:56:36.360Z,40.88
2019-02-09T11:59:03.058Z,39.28
2019-02-09T12:01:30.318Z,39.98
2019-02-09T12:03:56.943Z,40.08
2019-02-09T12:06:24.375Z,40.00
2019-02-09T12:08:51.137Z,39.56
2019-02-09T12:11:18.091Z,38.82
2019-02-09T12:13:45.107Z,39.57
2019-02-09T12:16:12.410Z,39.02
2019-02-09T12:18:43.966Z,38.68
2019-02-09T12:21:10.677Z,38.50
2019-02-09T12:23:37.362Z,38.39
2019-02-09T12:26:04.396Z,39.02
2019-02-09T12:28:31.266Z,39.91
2019-02-09T12:30:58.427Z,38.61
2019-02-09T12:33:25.303Z,38.17
2019-02-09T12:35:52.386Z,37.76
2019-02-09T12:38:19.435Z,38.39
2019-02-09T12:40:46.440Z,39.04
2019-02-09T12:43:13.562Z,39.32
2019-02-09T12:45:40.988Z,38.50
2019-02-09T12:48:07.715Z,38.50
2019-02-09T12:50:34.729Z,37.66
2019-02-09T12:53:02.769Z,37.87
2019-02-09T12:55:29.703Z,37.51
2019-02-09T12:57:56.637Z,37.07
2019-02-09T13:00:24.973Z,36.59
2019-02-09T13:02:51.663Z,37.25
2019-02-09T13:05:18.665Z,36.46
2019-02-09T13:07:45.836Z,36.46
2019-02-09T13:10:13.074Z,36.00
2019-02-09T13:12:39.736Z,36.62
2019-02-09T13:17:39.989Z,37.07
2019-02-09T13:20:06.741Z,35.76
2019-02-09T13:22:33.471Z,35.89
2019-02-09T13:25:00.195Z,36.20
2019-02-09T13:27:26.936Z,36.12
2019-02-09T13:29:55.425Z,36.07
2019-02-09T13:32:22.260Z,35.37
2019-02-09T13:34:49.485Z,34.97
2019-02-09T13:37:16.315Z,35.52
2019-02-09T13:39:43.419Z,35.66
2019-02-09T13:42:10.135Z,35.09
2019-02-09T13:44:37.078Z,35.03
2019-02-09T13:47:03.845Z,35.64
2019-02-09T13:49:30.837Z,35.54
2019-02-09T13:51:57.627Z,35.45
2019-02-09T13:54:25.636Z,34.31
2019-02-09T13:56:52.421Z,35.75
2019-02-09T13:59:19.110Z,35.00
2019-02-09T14:01:46.171Z,35.66
2019-02-09T14:04:13.582Z,35.45
2019-02-09T14:06:40.322Z,35.01
2019-02-09T14:09:07.383Z,35.22
2019-02-09T14:11:34.251Z,34.99
2019-02-09T14:14:01.282Z,34.88
2019-02-09T14:16:28.261Z,34.38
2019-02-09T14:18:55.286Z,34.71
2019-02-09T14:21:21.944Z,35.02
2019-02-09T14:23:48.810Z,34.42
2019-02-09T14:26:15.455Z,34.66
2019-02-09T14:28:42.157Z,34.84
2019-02-09T14:31:09.176Z,34.68
2019-02-09T14:33:36.114Z,34.79
2019-02-09T14:36:02.939Z,33.87
2019-02-09T14:38:31.461Z,34.55
2019-02-09T14:40:58.072Z,34.62
2019-02-09T14:43:26.738Z,34.64
2019-02-09T14:45:54.060Z,34.70
2019-02-09T14:48:22.988Z,34.81
2019-02-09T14:53:40.184Z,34.71
2019-02-09T14:56:07.619Z,35.51
2019-02-09T14:58:35.024Z,35.67
2019-02-09T15:01:02.558Z,35.29
2019-02-09T15:03:30.821Z,35.26
2019-02-09T15:05:57.677Z,35.34
2019-02-09T15:08:25.192Z,35.86
2019-02-09T15:10:52.332Z,36.13
2019-02-09T15:13:19.130Z,35.44
2019-02-09T15:15:46.400Z,35.34
2019-02-09T15:18:13.338Z,36.02
2019-02-09T15:20:40.577Z,36.22
2019-02-09T15:23:07.450Z,36.29
2019-02-09T15:25:35.158Z,36.47
2019-02-09T15:28:03.223Z,36.91
2019-02-09T15:30:30.084Z,37.06
2019-02-09T15:32:57.152Z,37.38
2019-02-09T15:35:24.314Z,37.34
2019-02-09T15:37:51.096Z,37.61
2019-02-09T15:40:18.186Z,37.44
2019-02-09T15:42:45.825Z,37.75
2019-02-09T15:45:13.464Z,37.64
2019-02-09T15:47:40.272Z,37.83
2019-02-09T15:50:07.312Z,38.22
2019-02-09T15:52:36.214Z,38.38
2019-02-09T15:55:03.114Z,38.52
2019-02-09T15:57:30.492Z,38.79
2019-02-09T15:59:57.551Z,39.35
2019-02-09T16:02:24.562Z,39.60
2019-02-09T16:04:51.283Z,39.67
2019-02-09T16:07:19.068Z,40.10
2019-02-09T16:09:45.986Z,40.33
2019-02-09T16:12:13.321Z,41.28
2019-02-09T16:14:40.332Z,41.90
2019-02-09T16:17:07.567Z,42.31
2019-02-09T16:19:35.819Z,42.62
2019-02-09T16:22:02.548Z,42.51
2019-02-09T16:24:29.581Z,42.61
2019-02-09T16:26:56.675Z,42.60
2019-02-09T16:29:23.757Z,43.00
2019-02-09T16:31:51.768Z,43.14
2019-02-09T16:34:25.342Z,43.27
2019-02-09T16:36:47.505Z,43.52
2019-02-09T16:39:14.416Z,43.34
2019-02-09T16:44:10.528Z,43.42
2019-02-09T16:46:37.552Z,43.49
2019-02-09T16:49:05.782Z,43.66
2019-02-09T16:51:32.576Z,43.71
2019-02-09T16:53:59.471Z,44.16
2019-02-09T16:56:26.114Z,44.43
2019-02-09T16:58:52.830Z,44.70
2019-02-09T17:01:19.651Z,44.83
2019-02-09T17:03:46.662Z,44.75
2019-02-09T17:06:23.251Z,44.74
2019-02-09T17:08:45.716Z,44.65
2019-02-09T17:11:12.728Z,44.78
2019-02-09T17:13:39.872Z,45.03
2019-02-09T17:16:07.043Z,45.57
2019-02-09T17:18:33.773Z,46.77
2019-02-09T17:21:03.799Z,47.15
2019-02-09T17:23:30.076Z,46.94
2019-02-09T17:25:56.863Z,47.18
2019-02-09T17:28:23.806Z,47.01
2019-02-09T17:30:50.892Z,46.92
2019-02-09T17:33:18.995Z,46.91
2019-02-09T17:35:45.969Z,46.62
2019-02-09T17:38:13.272Z,46.72
2019-02-09T17:40:40.200Z,46.60
2019-02-09T17:43:07.147Z,46.74
2019-02-09T17:45:34.060Z,46.99
2019-02-09T17:48:00.982Z,47.00
2019-02-09T17:50:27.616Z,47.47
2019-02-09T17:52:54.502Z,47.61
2019-02-09T17:55:21.283Z,47.52
2019-02-09T17:57:47.974Z,47.40
2019-02-09T18:00:14.632Z,47.32
2019-02-09T18:02:41.419Z,47.70
2019-02-09T18:05:08.116Z,47.54
2019-02-09T18:07:34.898Z,47.77
2019-02-09T18:10:01.549Z,49.17
2019-02-09T18:12:28.496Z,49.27
2019-02-09T18:14:55.209Z,49.53
2019-02-09T18:17:22.225Z,49.60
2019-02-09T18:19:49.192Z,49.41
2019-02-09T18:22:16.139Z,48.64
2019-02-09T18:24:43.154Z,49.13
2019-02-09T18:27:11.468Z,49.62
2019-02-09T18:29:38.356Z,49.63
2019-02-09T18:32:05.274Z,50.15
2019-02-09T18:34:32.252Z,50.46
2019-02-09T18:36:58.850Z,50.74
2019-02-09T18:39:25.555Z,51.63
2019-02-09T18:41:52.541Z,51.62
2019-02-09T18:44:19.723Z,51.88
2019-02-09T18:46:46.640Z,51.40
2019-02-09T18:49:13.502Z,51.25
2019-02-09T18:51:42.327Z,50.78
2019-02-09T18:54:08.920Z,50.63
2019-02-09T18:56:35.620Z,51.12
2019-02-09T18:59:02.519Z,51.82
2019-02-09T19:01:29.908Z,52.30
2019-02-09T19:03:57.667Z,52.33
2019-02-09T19:06:24.824Z,51.51
2019-02-09T19:08:51.656Z,51.36
2019-02-09T19:11:18.753Z,51.68
2019-02-09T19:13:45.515Z,51.62
2019-02-09T19:16:12.512Z,51.59
2019-02-09T19:18:39.412Z,51.60
2019-02-09T19:21:06.273Z,52.15
2019-02-09T19:23:34.273Z,52.63
2019-02-09T19:26:00.867Z,52.42
2019-02-09T19:28:27.604Z,52.14
2019-02-09T19:30:54.588Z,51.80
2019-02-09T19:33:21.543Z,51.90
2019-02-09T19:35:48.637Z,51.86
2019-02-09T19:38:15.375Z,52.27
2019-02-09T19:40:42.941Z,52.12
2019-02-09T19:43:09.614Z,51.85
2019-02-09T19:45:36.227Z,51.71
2019-02-09T19:48:03.559Z,52.31
2019-02-09T19:50:30.571Z,53.13
2019-02-09T19:52:57.201Z,53.10
2019-02-09T19:55:23.827Z,53.07
2019-02-09T19:57:50.883Z,52.92
2019-02-09T20:00:17.736Z,52.74
2019-02-09T20:02:44.499Z,53.52
2019-02-09T20:05:19.569Z,53.80
2019-02-09T20:07:39.952Z,53.76
2019-02-09T20:10:06.590Z,53.79
2019-02-09T20:12:33.273Z,54.18
2019-02-09T20:15:00.053Z,53.78
2019-02-09T20:17:27.088Z,53.76
2019-02-09T20:19:54.136Z,53.15
2019-02-09T20:22:21.022Z,53.52
2019-02-09T20:24:47.678Z,53.85
2019-02-09T20:27:14.361Z,53.98
2019-02-09T20:29:41.249Z,54.91
2019-02-09T20:32:07.873Z,54.83
2019-02-09T20:34:34.558Z,55.13
2019-02-09T20:37:01.406Z,55.57
2019-02-09T20:39:28.283Z,55.58
2019-02-09T20:41:56.190Z,55.83
2019-02-09T20:44:25.291Z,55.73
2019-02-09T20:46:56.600Z,55.71
2019-02-09T20:49:27.241Z,55.90
2019-02-09T20:51:54.883Z,55.87
2019-02-09T20:54:28.373Z,55.19
2019-02-09T20:56:55.026Z,54.65
2019-02-09T20:59:28.137Z,54.53
2019-02-09T21:01:57.631Z,54.45
2019-02-09T21:04:27.564Z,54.14
2019-02-09T21:06:57.538Z,54.01
2019-02-09T21:09:29.699Z,54.07
2019-02-09T21:12:00.489Z,54.26
2019-02-09T21:14:28.115Z,54.36
2019-02-09T21:16:57.603Z,54.87
2019-02-09T21:19:25.255Z,55.06
2019-02-09T21:21:55.119Z,54.66
2019-02-09T21:24:23.880Z,54.34
2019-02-09T21:26:50.488Z,54.33
2019-02-09T21:29:21.780Z,54.30
2019-02-09T21:31:51.192Z,54.21
2019-02-09T21:34:17.857Z,55.30
2019-02-09T21:36:48.133Z,55.17
2019-02-09T21:39:19.329Z,55.46
2019-02-09T21:41:45.968Z,55.97
2019-02-09T21:44:13.688Z,56.43
2019-02-09T21:46:41.841Z,56.26
2019-02-09T21:49:09.672Z,56.26
2019-02-09T21:51:39.595Z,55.91
2019-02-09T21:54:10.255Z,54.75
2019-02-09T21:56:37.891Z,55.16
2019-02-09T21:59:09.076Z,55.34
2019-02-09T22:01:37.071Z,55.07
2019-02-09T22:04:03.937Z,54.87
2019-02-09T22:06:31.030Z,55.46
2019-02-09T22:08:57.930Z,55.21
2019-02-09T22:11:24.724Z,55.28
2019-02-09T22:13:52.414Z,54.82
2019-02-09T22:16:19.068Z,54.12
2019-02-09T22:18:46.111Z,54.26
2019-02-09T22:21:13.076Z,54.98
2019-02-09T22:23:39.682Z,55.24
2019-02-09T22:26:13.102Z,56.20
2019-02-09T22:28:37.557Z,56.76
2019-02-09T22:31:05.276Z,57.06
2019-02-09T22:33:35.325Z,57.10
2019-02-09T22:36:06.340Z,57.02
2019-02-09T22:38:34.938Z,56.88
2019-02-09T22:41:02.030Z,57.28
2019-02-09T22:43:29.753Z,57.24
2019-02-09T22:45:57.809Z,56.46
2019-02-09T22:48:27.356Z,56.64
2019-02-09T22:50:55.117Z,56.71
2019-02-09T22:53:22.816Z,56.73
2019-02-09T22:55:51.603Z,57.22
2019-02-09T22:58:18.442Z,57.48
2019-02-09T23:00:51.621Z,57.66
2019-02-09T23:03:17.931Z,58.15
2019-02-09T23:05:44.523Z,58.17
2019-02-09T23:08:11.427Z,58.06
2019-02-09T23:10:38.156Z,57.53
2019-02-09T23:13:04.835Z,58.14
2019-02-09T23:15:31.581Z,59.22
2019-02-09T23:17:58.476Z,59.89
2019-02-09T23:20:25.068Z,59.15
2019-02-09T23:22:51.730Z,59.95
2019-02-09T23:25:18.361Z,59.42
2019-02-09T23:27:44.985Z,59.16
2019-02-09T23:30:11.779Z,58.54
2019-02-09T23:32:38.402Z,58.51
2019-02-09T23:35:05.032Z,58.25
2019-02-09T23:37:32.168Z,58.38
2019-02-09T23:39:58.979Z,58.40
2019-02-09T23:42:25.656Z,59.06
2019-02-09T23:44:52.283Z,59.25
2019-02-09T23:47:19.138Z,59.32
2019-02-09T23:49:46.105Z,58.96
2019-02-09T23:52:13.179Z,58.56
2019-02-09T23:54:40.421Z,58.79
2019-02-09T23:57:07.127Z,59.20
2019-02-09T23:59:33.731Z,58.48
